Time;durP1;ratioP1;P1;durP2;ratioP2;P2;SDS_P1;SDS_P2;PMS_P1;PMS_P2;Temp;Humidity;BMP_temperature;BMP_pressure;BME280_temperature;BME280_humidity;BME280_pressure;Samples;Min_cycle;Max_cycle;Signal;HPM_P1;HPM_P2
2022/08/31 00:04:22;;;;;;;;;;;15.20;99.90;;;;;;5030774;28;19931;-71
2022/08/31 00:06:48;;;;;;;;;;;15.10;99.90;;;;;;5033397;28;19917;-71
2022/08/31 00:09:14;;;;;;;;;;;15.00;99.90;;;;;;5030591;28;20303;-71
2022/08/31 00:11:40;;;;;;;;;;;15.00;99.90;;;;;;5032867;28;20360;-71
2022/08/31 00:14:06;;;;;;;;;;;14.90;99.90;;;;;;5036368;28;19916;-70
2022/08/31 00:16:33;;;;;;;;;;;15.00;99.90;;;;;;5034559;28;20290;-70
2022/08/31 00:18:59;;;;;;;;;;;15.00;99.90;;;;;;5032196;28;19977;-70
2022/08/31 00:21:25;;;;;;;;;;;15.00;99.90;;;;;;5033603;28;20011;-70
2022/08/31 00:23:51;;;;;;;;;;;15.00;99.90;;;;;;5031169;28;19918;-70
2022/08/31 00:26:17;;;;;;;;;;;15.00;99.90;;;;;;5028295;28;20007;-70
2022/08/31 00:28:42;;;;;;;;;;;14.90;99.90;;;;;;5033857;28;19936;-72
2022/08/31 00:31:08;;;;;;;;;;;14.90;99.90;;;;;;5034262;28;19924;-72
2022/08/31 00:33:35;;;;;;;;;;;14.80;99.90;;;;;;5030023;28;20278;-72
2022/08/31 00:36:02;;;;;;;;;;;14.80;99.90;;;;;;5027592;28;19928;-72
2022/08/31 00:38:28;;;;;;;;;;;14.80;99.90;;;;;;5028132;28;19970;-71
2022/08/31 00:40:53;;;;;;;;;;;14.70;99.90;;;;;;5034997;28;19921;-72
2022/08/31 00:43:38;;;;;;;;;;;14.70;99.90;;;;;;5032624;28;20080;-70
2022/08/31 00:46:04;;;;;;;;;;;14.70;99.90;;;;;;5030208;28;19923;-72
2022/08/31 00:48:29;;;;;;;;;;;14.70;99.90;;;;;;5032084;28;19944;-72
2022/08/31 00:50:56;;;;;;;;;;;14.60;99.90;;;;;;5033830;28;19920;-72
2022/08/31 00:53:22;;;;;;;;;;;14.70;99.90;;;;;;5032457;28;20073;-71
2022/08/31 00:55:47;;;;;;;;;;;14.70;99.90;;;;;;5034095;28;19998;-72
2022/08/31 00:58:13;;;;;;;;;;;14.70;99.90;;;;;;5030272;28;20436;-72
2022/08/31 01:00:41;;;;;;;;;;;14.60;99.90;;;;;;5036700;28;20234;-72
2022/08/31 01:03:07;;;;;;;;;;;14.60;99.90;;;;;;5035288;28;19916;-70
2022/08/31 01:05:33;;;;;;;;;;;14.50;99.90;;;;;;5034797;28;19924;-71
2022/08/31 01:07:59;;;;;;;;;;;14.50;99.90;;;;;;5030632;28;19921;-72
2022/08/31 01:10:27;;;;;;;;;;;14.40;99.90;;;;;;5034869;28;19921;-72
2022/08/31 01:12:55;;;;;;;;;;;14.30;99.90;;;;;;5037038;28;19942;-72
2022/08/31 01:15:21;;;;;;;;;;;14.30;99.90;;;;;;5037169;28;19917;-72
2022/08/31 01:17:47;;;;;;;;;;;14.30;99.90;;;;;;5035587;28;20402;-72
2022/08/31 01:20:13;;;;;;;;;;;14.20;99.90;;;;;;5038569;28;20390;-72
2022/08/31 01:22:50;;;;;;;;;;;14.10;99.90;;;;;;5034965;28;20020;-71
2022/08/31 01:25:17;;;;;;;;;;;14.10;99.90;;;;;;5035631;28;19917;-71
2022/08/31 01:27:43;;;;;;;;;;;14.10;99.90;;;;;;5037733;28;19916;-72
2022/08/31 01:30:11;;;;;;;;;;;14.00;99.90;;;;;;5036033;28;20303;-72
2022/08/31 01:32:37;;;;;;;;;;;14.00;99.90;;;;;;5038061;28;20412;-72
2022/08/31 01:35:03;;;;;;;;;;;14.00;99.90;;;;;;5028116;28;20257;-72
2022/08/31 01:37:28;;;;;;;;;;;14.00;99.90;;;;;;5034378;28;19917;-71
2022/08/31 01:39:54;;;;;;;;;;;14.00;99.90;;;;;;5038294;28;19955;-70
2022/08/31 01:42:19;;;;;;;;;;;14.00;99.90;;;;;;5037939;28;20003;-71
2022/08/31 01:44:45;;;;;;;;;;;13.90;99.90;;;;;;5036100;28;19921;-71
2022/08/31 01:47:11;;;;;;;;;;;13.90;99.90;;;;;;5035699;28;20323;-72
2022/08/31 01:49:36;;;;;;;;;;;13.80;99.90;;;;;;5031502;28;19924;-72
2022/08/31 01:52:03;;;;;;;;;;;13.80;99.90;;;;;;5033890;28;19916;-72
2022/08/31 01:54:28;;;;;;;;;;;13.80;99.90;;;;;;5031168;28;19917;-71
2022/08/31 01:56:54;;;;;;;;;;;13.80;99.90;;;;;;5033078;28;20320;-71
2022/08/31 01:59:20;;;;;;;;;;;13.70;99.90;;;;;;5030580;28;20590;-69
2022/08/31 02:01:48;;;;;;;;;;;13.60;99.90;;;;;;5029101;28;20421;-71
2022/08/31 02:04:15;;;;;;;;;;;13.60;99.90;;;;;;5033287;28;20031;-72
2022/08/31 02:06:42;;;;;;;;;;;13.60;99.90;;;;;;5031265;28;19932;-70
2022/08/31 02:09:07;;;;;;;;;;;13.60;99.90;;;;;;5035233;28;20306;-71
2022/08/31 02:11:33;;;;;;;;;;;13.60;99.90;;;;;;5034547;28;19967;-72
2022/08/31 02:13:58;;;;;;;;;;;13.60;99.90;;;;;;5031791;28;19917;-72
2022/08/31 02:16:24;;;;;;;;;;;13.60;99.90;;;;;;5035328;28;20389;-72
2022/08/31 02:18:50;;;;;;;;;;;13.60;99.90;;;;;;5032573;28;20331;-71
2022/08/31 02:21:16;;;;;;;;;;;13.60;99.90;;;;;;5030354;28;20375;-70
2022/08/31 02:23:41;;;;;;;;;;;13.70;99.90;;;;;;5030365;28;20383;-70
2022/08/31 02:26:07;;;;;;;;;;;13.60;99.90;;;;;;5031521;28;19924;-70
2022/08/31 02:28:32;;;;;;;;;;;13.70;99.90;;;;;;5031925;28;20027;-70
2022/08/31 02:30:58;;;;;;;;;;;13.60;99.90;;;;;;5031794;28;19995;-70
2022/08/31 02:33:27;;;;;;;;;;;13.60;99.90;;;;;;5034120;28;19970;-70
2022/08/31 02:35:52;;;;;;;;;;;13.60;99.90;;;;;;5032621;28;19921;-70
2022/08/31 02:38:18;;;;;;;;;;;13.60;99.90;;;;;;5034611;28;20308;-70
2022/08/31 02:40:43;;;;;;;;;;;13.50;99.90;;;;;;5036724;28;20307;-70
2022/08/31 02:43:10;;;;;;;;;;;13.60;99.90;;;;;;5034239;28;20003;-70
2022/08/31 02:45:36;;;;;;;;;;;13.60;99.90;;;;;;5036927;28;20033;-70
2022/08/31 02:48:03;;;;;;;;;;;13.60;99.90;;;;;;5033343;28;19960;-70
2022/08/31 02:50:28;;;;;;;;;;;13.60;99.90;;;;;;5032640;28;20035;-69
2022/08/31 02:52:55;;;;;;;;;;;13.50;99.90;;;;;;5032625;28;19924;-69
2022/08/31 02:55:22;;;;;;;;;;;13.50;99.90;;;;;;5034482;28;19966;-70
2022/08/31 02:57:48;;;;;;;;;;;13.50;99.90;;;;;;5036400;28;19917;-70
2022/08/31 03:00:13;;;;;;;;;;;13.50;99.90;;;;;;5036086;28;19924;-70
2022/08/31 03:02:40;;;;;;;;;;;13.50;99.90;;;;;;5033488;28;19951;-70
2022/08/31 03:05:09;;;;;;;;;;;13.50;99.90;;;;;;5034748;28;19928;-70
2022/08/31 03:07:35;;;;;;;;;;;13.40;99.90;;;;;;5033581;28;19932;-69
2022/08/31 03:10:01;;;;;;;;;;;13.40;99.90;;;;;;5034439;28;19925;-70
2022/08/31 03:12:27;;;;;;;;;;;13.40;99.90;;;;;;5033570;28;20352;-70
2022/08/31 03:14:53;;;;;;;;;;;13.30;99.90;;;;;;5033069;28;19939;-70
2022/08/31 03:17:19;;;;;;;;;;;13.40;99.90;;;;;;5034533;28;20014;-69
2022/08/31 03:19:44;;;;;;;;;;;13.40;99.90;;;;;;5035418;28;19996;-70
2022/08/31 03:22:12;;;;;;;;;;;13.30;99.90;;;;;;5032868;28;20008;-70
2022/08/31 03:24:37;;;;;;;;;;;13.30;99.90;;;;;;5032817;28;20366;-70
2022/08/31 03:27:03;;;;;;;;;;;13.20;99.90;;;;;;5033317;28;20053;-70
2022/08/31 03:29:28;;;;;;;;;;;13.20;99.90;;;;;;5034578;28;19947;-70
2022/08/31 03:31:54;;;;;;;;;;;13.10;99.90;;;;;;5034901;28;20367;-70
2022/08/31 03:34:19;;;;;;;;;;;13.00;99.90;;;;;;5032249;28;19968;-70
2022/08/31 03:36:45;;;;;;;;;;;12.90;99.90;;;;;;5034660;28;19947;-70
2022/08/31 03:39:10;;;;;;;;;;;12.90;99.90;;;;;;5033578;28;20040;-70
2022/08/31 03:41:36;;;;;;;;;;;12.90;99.90;;;;;;5033220;28;20332;-69
2022/08/31 03:44:02;;;;;;;;;;;12.80;99.90;;;;;;5031847;28;19917;-70
2022/08/31 03:46:32;;;;;;;;;;;12.80;99.90;;;;;;5034179;28;19917;-70
2022/08/31 03:49:00;;;;;;;;;;;12.70;99.90;;;;;;5031613;28;20018;-70
2022/08/31 03:51:26;;;;;;;;;;;12.70;99.90;;;;;;5028741;28;20478;-70
2022/08/31 03:53:51;;;;;;;;;;;12.60;99.90;;;;;;5031605;28;20071;-69
2022/08/31 03:56:17;;;;;;;;;;;12.50;99.90;;;;;;5033229;28;20003;-70
2022/08/31 03:58:43;;;;;;;;;;;12.50;99.90;;;;;;5033707;28;19925;-70
2022/08/31 04:01:10;;;;;;;;;;;12.40;99.90;;;;;;5032673;28;20446;-70
2022/08/31 04:03:35;;;;;;;;;;;12.40;99.90;;;;;;5031997;28;19933;-70
2022/08/31 04:06:01;;;;;;;;;;;12.30;99.90;;;;;;5033716;28;19944;-69
2022/08/31 04:08:26;;;;;;;;;;;12.30;99.90;;;;;;5033779;28;19947;-70
2022/08/31 04:10:52;;;;;;;;;;;12.20;99.90;;;;;;5031945;28;20466;-70
2022/08/31 04:13:17;;;;;;;;;;;12.20;99.90;;;;;;5032859;28;19979;-70
2022/08/31 04:15:43;;;;;;;;;;;12.10;99.90;;;;;;5028696;28;20041;-70
2022/08/31 04:18:08;;;;;;;;;;;12.10;99.90;;;;;;5028323;28;19948;-70
2022/08/31 04:20:35;;;;;;;;;;;12.10;99.90;;;;;;5029053;28;20126;-70
2022/08/31 04:23:00;;;;;;;;;;;12.00;99.90;;;;;;5031585;28;19917;-70
2022/08/31 04:25:26;;;;;;;;;;;12.00;99.90;;;;;;5035557;28;19917;-70
2022/08/31 04:27:53;;;;;;;;;;;12.00;99.90;;;;;;5032834;28;20436;-69
2022/08/31 04:30:20;;;;;;;;;;;12.10;99.90;;;;;;5032090;28;19921;-70
2022/08/31 04:32:46;;;;;;;;;;;12.10;99.90;;;;;;5029319;28;19927;-70
2022/08/31 04:35:12;;;;;;;;;;;12.10;99.90;;;;;;5028129;28;20386;-70
2022/08/31 04:37:40;;;;;;;;;;;12.10;99.90;;;;;;5031546;28;20187;-70
2022/08/31 04:40:07;;;;;;;;;;;12.10;99.90;;;;;;5033486;28;19917;-70
2022/08/31 04:42:35;;;;;;;;;;;12.10;99.90;;;;;;5031206;28;20304;-70
2022/08/31 04:45:01;;;;;;;;;;;12.10;99.90;;;;;;5035127;28;19923;-70
2022/08/31 04:47:27;;;;;;;;;;;12.10;99.90;;;;;;5033646;28;19961;-70
2022/08/31 04:49:52;;;;;;;;;;;12.10;99.90;;;;;;5033721;28;20016;-70
2022/08/31 04:52:18;;;;;;;;;;;12.10;99.90;;;;;;5032069;28;19917;-70
2022/08/31 04:54:43;;;;;;;;;;;12.10;99.90;;;;;;5031586;28;19916;-70
2022/08/31 04:57:09;;;;;;;;;;;12.10;99.90;;;;;;5034322;28;19917;-70
2022/08/31 04:59:35;;;;;;;;;;;12.20;99.90;;;;;;5033691;28;19966;-70
2022/08/31 05:02:00;;;;;;;;;;;12.20;99.90;;;;;;5030412;28;20287;-70
2022/08/31 05:04:27;;;;;;;;;;;12.20;99.90;;;;;;5027652;28;19931;-71
2022/08/31 05:06:53;;;;;;;;;;;12.30;99.90;;;;;;5030790;28;19916;-70
2022/08/31 05:09:19;;;;;;;;;;;12.30;99.90;;;;;;5027922;28;19970;-71
2022/08/31 05:11:45;;;;;;;;;;;12.40;99.90;;;;;;5027398;28;19924;-70
2022/08/31 05:14:10;;;;;;;;;;;12.40;99.90;;;;;;5029305;28;19921;-70
2022/08/31 05:16:37;;;;;;;;;;;12.40;99.90;;;;;;5028554;28;19963;-70
2022/08/31 05:19:03;;;;;;;;;;;12.50;99.90;;;;;;5029472;28;20666;-70
2022/08/31 05:21:31;;;;;;;;;;;12.50;99.90;;;;;;5030545;28;19997;-70
2022/08/31 05:23:58;;;;;;;;;;;12.70;99.90;;;;;;5032474;28;20317;-70
2022/08/31 05:26:25;;;;;;;;;;;12.80;99.90;;;;;;5031427;28;20079;-71
2022/08/31 05:28:50;;;;;;;;;;;12.90;99.90;;;;;;5029255;28;20387;-70
2022/08/31 05:31:16;;;;;;;;;;;12.90;99.90;;;;;;5029356;28;19993;-70
2022/08/31 05:33:42;;;;;;;;;;;12.90;99.90;;;;;;5039000;28;20213;-70
2022/08/31 05:36:08;;;;;;;;;;;13.00;99.90;;;;;;5032570;28;19960;-70
2022/08/31 05:38:34;;;;;;;;;;;13.00;99.90;;;;;;5033435;28;19948;-70
2022/08/31 05:41:00;;;;;;;;;;;13.00;99.90;;;;;;5029974;28;19917;-70
2022/08/31 05:43:26;;;;;;;;;;;13.00;99.90;;;;;;5029938;28;20685;-70
2022/08/31 05:45:51;;;;;;;;;;;13.10;99.90;;;;;;5036857;28;19921;-70
2022/08/31 05:48:17;;;;;;;;;;;13.20;99.90;;;;;;5034388;28;19921;-71
2022/08/31 05:50:42;;;;;;;;;;;13.30;99.90;;;;;;5031985;28;20393;-70
2022/08/31 05:53:08;;;;;;;;;;;13.40;99.90;;;;;;5036048;28;19921;-70
2022/08/31 05:55:33;;;;;;;;;;;13.40;99.90;;;;;;5037887;28;19921;-70
2022/08/31 05:57:59;;;;;;;;;;;13.50;99.90;;;;;;5036771;28;19917;-70
2022/08/31 06:00:25;;;;;;;;;;;13.60;99.90;;;;;;5035588;28;20249;-70
2022/08/31 06:02:51;;;;;;;;;;;13.70;99.90;;;;;;5032253;28;20048;-70
2022/08/31 06:05:17;;;;;;;;;;;13.70;99.90;;;;;;5036580;28;20399;-70
2022/08/31 06:07:42;;;;;;;;;;;13.80;99.90;;;;;;5035845;28;20279;-70
2022/08/31 06:10:08;;;;;;;;;;;13.90;99.90;;;;;;5038432;28;19931;-70
2022/08/31 06:12:36;;;;;;;;;;;13.90;99.90;;;;;;5036432;28;19967;-70
2022/08/31 06:15:03;;;;;;;;;;;14.00;99.90;;;;;;5035310;28;20074;-70
2022/08/31 06:17:33;;;;;;;;;;;14.10;99.90;;;;;;5036818;28;19916;-70
2022/08/31 06:19:59;;;;;;;;;;;14.10;99.90;;;;;;5035303;28;19932;-71
2022/08/31 06:22:25;;;;;;;;;;;14.20;99.90;;;;;;5034036;28;19917;-70
2022/08/31 06:24:50;;;;;;;;;;;14.30;99.90;;;;;;5029731;28;19928;-69
2022/08/31 06:27:17;;;;;;;;;;;14.50;99.90;;;;;;5028731;28;19917;-71
2022/08/31 06:29:43;;;;;;;;;;;14.60;99.90;;;;;;5036914;28;19929;-70
2022/08/31 06:32:09;;;;;;;;;;;14.60;99.90;;;;;;5031899;28;19917;-70
2022/08/31 06:34:35;;;;;;;;;;;14.70;99.90;;;;;;5034539;28;20245;-71
2022/08/31 06:37:02;;;;;;;;;;;14.80;99.90;;;;;;5037322;28;19916;-70
2022/08/31 06:39:27;;;;;;;;;;;14.90;99.90;;;;;;5038426;28;20007;-70
2022/08/31 06:41:54;;;;;;;;;;;15.00;99.90;;;;;;5043332;28;19921;-70
2022/08/31 06:44:21;;;;;;;;;;;15.10;99.90;;;;;;5037608;28;19917;-70
2022/08/31 06:46:47;;;;;;;;;;;15.20;99.90;;;;;;5034521;28;19920;-70
2022/08/31 06:49:13;;;;;;;;;;;15.30;99.90;;;;;;5041266;28;19962;-71
2022/08/31 06:51:38;;;;;;;;;;;15.30;99.90;;;;;;5032409;28;19928;-70
2022/08/31 06:54:06;;;;;;;;;;;15.40;99.90;;;;;;5029628;28;19916;-71
2022/08/31 06:56:32;;;;;;;;;;;15.50;99.90;;;;;;5026648;28;19925;-70
2022/08/31 06:59:00;;;;;;;;;;;15.50;99.90;;;;;;5033030;28;19928;-70
2022/08/31 07:01:27;;;;;;;;;;;15.60;99.90;;;;;;5040228;28;19917;-70
2022/08/31 07:03:54;;;;;;;;;;;15.80;99.90;;;;;;5026966;28;19925;-71
2022/08/31 07:06:20;;;;;;;;;;;15.80;99.90;;;;;;5031542;28;20341;-70
2022/08/31 07:08:48;;;;;;;;;;;16.00;99.90;;;;;;5033161;28;20002;-70
2022/08/31 07:11:15;;;;;;;;;;;16.10;99.90;;;;;;5032874;28;20390;-70
2022/08/31 07:13:41;;;;;;;;;;;16.10;99.90;;;;;;5027038;28;19923;-71
2022/08/31 07:16:11;;;;;;;;;;;16.20;99.90;;;;;;5040273;28;19917;-70
2022/08/31 07:18:37;;;;;;;;;;;16.20;99.90;;;;;;5030892;28;20001;-70
2022/08/31 07:21:09;;;;;;;;;;;16.30;99.90;;;;;;5024366;28;19956;-71
2022/08/31 07:23:35;;;;;;;;;;;16.40;99.90;;;;;;5030462;28;19981;-70
2022/08/31 07:26:08;;;;;;;;;;;16.60;99.90;;;;;;5026882;28;20042;-71
2022/08/31 07:28:34;;;;;;;;;;;16.70;99.90;;;;;;5024830;28;19970;-71
2022/08/31 07:31:02;;;;;;;;;;;16.80;99.90;;;;;;5039519;28;20043;-70
2022/08/31 07:33:33;;;;;;;;;;;16.90;99.90;;;;;;5033092;28;19917;-71
2022/08/31 07:35:58;;;;;;;;;;;17.00;99.90;;;;;;5037731;28;20333;-71
2022/08/31 07:43:55;;;;;;;;;;;17.40;99.90;;;;;;5041503;28;19927;-71
2022/08/31 07:46:21;;;;;;;;;;;17.70;99.90;;;;;;5036999;28;20468;-70
2022/08/31 07:48:46;;;;;;;;;;;18.10;99.90;;;;;;5039455;28;19944;-71
2022/08/31 07:51:22;;;;;;;;;;;20.60;99.90;;;;;;5039945;28;20355;-71
2022/08/31 07:53:48;;;;;;;;;;;24.30;99.90;;;;;;5027067;28;19924;-71
2022/08/31 07:56:15;;;;;;;;;;;27.30;99.90;;;;;;5021393;28;20327;-71
2022/08/31 07:58:41;;;;;;;;;;;29.50;91.90;;;;;;5037727;28;19954;-71
2022/08/31 08:01:07;;;;;;;;;;;31.40;82.00;;;;;;5038960;28;19917;-71
2022/08/31 08:03:32;;;;;;;;;;;32.50;73.70;;;;;;5032295;28;19925;-71
2022/08/31 08:05:58;;;;;;;;;;;33.10;68.80;;;;;;5020571;28;20102;-71
2022/08/31 08:08:24;;;;;;;;;;;33.50;66.40;;;;;;5023278;28;19955;-71
2022/08/31 08:10:49;;;;;;;;;;;34.80;62.00;;;;;;5027307;28;19971;-71
2022/08/31 08:13:18;;;;;;;;;;;35.00;59.60;;;;;;5021225;28;19928;-72
2022/08/31 08:15:44;;;;;;;;;;;34.70;58.40;;;;;;5029893;28;19917;-71
2022/08/31 08:18:12;;;;;;;;;;;34.50;59.30;;;;;;5027457;28;19990;-71
2022/08/31 08:20:38;;;;;;;;;;;34.50;57.80;;;;;;5032059;28;19928;-71
2022/08/31 08:23:12;;;;;;;;;;;34.80;55.70;;;;;;5030350;28;19916;-71
2022/08/31 08:25:38;;;;;;;;;;;34.00;56.50;;;;;;5032161;28;19916;-71
2022/08/31 08:28:03;;;;;;;;;;;34.60;55.60;;;;;;5035296;28;19917;-71
2022/08/31 08:30:29;;;;;;;;;;;34.40;56.40;;;;;;5031378;28;20310;-71
2022/08/31 08:33:00;;;;;;;;;;;33.90;55.80;;;;;;5020706;28;20278;-71
2022/08/31 08:35:31;;;;;;;;;;;32.90;56.20;;;;;;5036140;28;20485;-71
2022/08/31 08:37:57;;;;;;;;;;;31.60;60.10;;;;;;5026747;28;20361;-71
2022/08/31 08:40:28;;;;;;;;;;;31.50;59.80;;;;;;5028264;28;20166;-72
2022/08/31 08:42:54;;;;;;;;;;;32.50;58.90;;;;;;5011834;28;20438;-71
2022/08/31 08:45:20;;;;;;;;;;;32.70;57.60;;;;;;5010639;28;20258;-71
2022/08/31 08:47:48;;;;;;;;;;;33.10;58.10;;;;;;5025074;28;19919;-70
2022/08/31 08:50:14;;;;;;;;;;;34.20;56.40;;;;;;5027230;28;20446;-71
2022/08/31 08:52:41;;;;;;;;;;;34.50;55.00;;;;;;5016668;28;19913;-72
2022/08/31 08:55:14;;;;;;;;;;;35.10;52.50;;;;;;5017586;28;20452;-72
2022/08/31 08:57:41;;;;;;;;;;;33.20;53.70;;;;;;5023820;28;20341;-69
2022/08/31 09:00:25;;;;;;;;;;;33.00;56.30;;;;;;5026660;28;20416;-72
2022/08/31 09:02:57;;;;;;;;;;;33.70;55.80;;;;;;5021217;28;20039;-71
2022/08/31 09:05:33;;;;;;;;;;;33.80;54.90;;;;;;5025160;28;19924;-72
2022/08/31 09:07:59;;;;;;;;;;;33.50;54.80;;;;;;5014970;28;19916;-72
2022/08/31 09:10:37;;;;;;;;;;;33.90;57.60;;;;;;5028125;28;20463;-71
2022/08/31 09:13:09;;;;;;;;;;;32.60;54.40;;;;;;5027957;28;19924;-71
2022/08/31 09:15:38;;;;;;;;;;;30.90;58.50;;;;;;5024365;28;19924;-71
2022/08/31 09:18:16;;;;;;;;;;;30.80;58.40;;;;;;5024928;28;20204;-71
2022/08/31 09:20:41;;;;;;;;;;;29.90;61.60;;;;;;5025447;28;19991;-72
2022/08/31 09:23:07;;;;;;;;;;;29.40;63.10;;;;;;5026940;28;20379;-71
2022/08/31 09:25:51;;;;;;;;;;;28.60;66.60;;;;;;5019444;28;20292;-71
2022/08/31 09:28:17;;;;;;;;;;;27.60;69.20;;;;;;5024392;28;20344;-71
2022/08/31 09:30:43;;;;;;;;;;;27.60;71.10;;;;;;5027415;28;19978;-71
2022/08/31 09:33:28;;;;;;;;;;;27.90;69.80;;;;;;5025542;28;20375;-71
2022/08/31 09:36:12;;;;;;;;;;;28.50;69.10;;;;;;5021779;28;20369;-72
2022/08/31 09:38:39;;;;;;;;;;;29.60;67.70;;;;;;5036747;28;19924;-72
2022/08/31 09:41:19;;;;;;;;;;;30.40;65.20;;;;;;5034278;28;19921;-72
2022/08/31 09:43:46;;;;;;;;;;;31.50;61.80;;;;;;5028890;28;20301;-71
2022/08/31 09:46:21;;;;;;;;;;;31.80;61.00;;;;;;5021006;28;20411;-72
2022/08/31 09:48:51;;;;;;;;;;;32.40;63.00;;;;;;5033393;28;20044;-71
2022/08/31 09:51:24;;;;;;;;;;;33.00;58.00;;;;;;5031523;28;21653;-72
2022/08/31 09:56:51;;;;;;;;;;;30.20;59.80;;;;;;5022066;28;19966;-71
2022/08/31 09:59:27;;;;;;;;;;;29.50;64.00;;;;;;5034032;28;19917;-71
2022/08/31 10:01:54;;;;;;;;;;;29.80;64.00;;;;;;5024857;28;19971;-70
2022/08/31 10:04:24;;;;;;;;;;;30.80;63.30;;;;;;5019275;28;19943;-71
2022/08/31 10:07:12;;;;;;;;;;;31.70;62.50;;;;;;5014070;28;19928;-71
2022/08/31 10:09:38;;;;;;;;;;;32.00;63.40;;;;;;5014616;28;20135;-71
2022/08/31 10:12:06;;;;;;;;;;;32.10;64.10;;;;;;5011887;28;20482;-72
2022/08/31 10:14:41;;;;;;;;;;;31.40;60.10;;;;;;5012428;28;19921;-70
2022/08/31 10:17:09;;;;;;;;;;;29.90;62.00;;;;;;5027716;28;19924;-71
2022/08/31 10:19:43;;;;;;;;;;;30.30;65.00;;;;;;5037961;28;19917;-71
2022/08/31 10:22:12;;;;;;;;;;;30.90;62.10;;;;;;5017223;28;19923;-71
2022/08/31 10:24:44;;;;;;;;;;;30.90;64.10;;;;;;5016079;28;19917;-71
2022/08/31 10:27:30;;;;;;;;;;;30.40;61.80;;;;;;5033370;28;19924;-71
2022/08/31 10:30:16;;;;;;;;;;;30.30;63.40;;;;;;5024823;28;20044;-71
2022/08/31 10:32:44;;;;;;;;;;;31.60;60.40;;;;;;5022869;28;19917;-71
2022/08/31 10:35:18;;;;;;;;;;;31.90;57.50;;;;;;5022123;28;19975;-71
2022/08/31 10:37:43;;;;;;;;;;;31.90;59.90;;;;;;5034954;28;19923;-71
2022/08/31 10:40:16;;;;;;;;;;;31.90;58.30;;;;;;5025695;28;19917;-72
2022/08/31 10:42:45;;;;;;;;;;;31.80;60.20;;;;;;5027645;28;19969;-71
2022/08/31 10:45:10;;;;;;;;;;;31.50;59.10;;;;;;5023893;28;19975;-71
2022/08/31 10:47:41;;;;;;;;;;;31.80;61.10;;;;;;5022979;28;20028;-71
2022/08/31 10:50:07;;;;;;;;;;;32.20;59.10;;;;;;5020284;28;20336;-71
2022/08/31 10:52:47;;;;;;;;;;;32.20;57.60;;;;;;5016831;28;20692;-71
2022/08/31 10:55:22;;;;;;;;;;;32.60;58.00;;;;;;5015326;28;19921;-71
2022/08/31 10:57:57;;;;;;;;;;;32.80;56.90;;;;;;5017590;28;20059;-72
2022/08/31 11:00:40;;;;;;;;;;;32.50;56.60;;;;;;5019079;28;20287;-72
2022/08/31 11:03:09;;;;;;;;;;;31.90;59.70;;;;;;5024723;28;19947;-71
2022/08/31 11:05:36;;;;;;;;;;;31.50;60.10;;;;;;5014846;28;19920;-71
2022/08/31 11:08:12;;;;;;;;;;;31.30;58.80;;;;;;5022548;28;20516;-72
2022/08/31 11:10:41;;;;;;;;;;;30.80;61.20;;;;;;5023684;28;20011;-71
2022/08/31 11:13:16;;;;;;;;;;;29.60;62.30;;;;;;5019678;28;20333;-71
2022/08/31 11:16:00;;;;;;;;;;;29.40;66.10;;;;;;5031733;28;19917;-70
2022/08/31 11:18:49;;;;;;;;;;;29.10;64.90;;;;;;5033295;28;19934;-71
2022/08/31 11:21:18;;;;;;;;;;;29.10;65.40;;;;;;5007480;28;19917;-71
2022/08/31 11:23:52;;;;;;;;;;;29.40;62.70;;;;;;5026719;28;19983;-72
2022/08/31 11:26:26;;;;;;;;;;;28.90;63.30;;;;;;5013502;28;19917;-71
2022/08/31 11:29:12;;;;;;;;;;;27.80;66.70;;;;;;5035311;28;20362;-71
2022/08/31 11:31:38;;;;;;;;;;;26.60;69.50;;;;;;5034177;28;20561;-71
2022/08/31 11:34:12;;;;;;;;;;;25.50;73.40;;;;;;5037533;28;19913;-71
2022/08/31 11:36:50;;;;;;;;;;;25.70;75.80;;;;;;5037010;28;19951;-71
2022/08/31 11:39:25;;;;;;;;;;;26.30;78.40;;;;;;5032718;28;19913;-71
2022/08/31 11:41:52;;;;;;;;;;;26.60;72.60;;;;;;5034824;28;19967;-72
2022/08/31 11:44:30;;;;;;;;;;;26.50;72.20;;;;;;5035052;28;20303;-71
2022/08/31 11:47:05;;;;;;;;;;;26.00;73.20;;;;;;5038413;28;20401;-71
2022/08/31 11:49:34;;;;;;;;;;;25.30;77.10;;;;;;5035481;28;19959;-71
2022/08/31 11:52:09;;;;;;;;;;;24.80;82.40;;;;;;5038451;28;20388;-71
2022/08/31 11:54:40;;;;;;;;;;;24.60;80.10;;;;;;5037113;28;19917;-71
2022/08/31 11:57:07;;;;;;;;;;;25.00;82.70;;;;;;5025145;28;19924;-71
2022/08/31 11:59:38;;;;;;;;;;;25.70;81.50;;;;;;5020453;28;19916;-71
2022/08/31 12:02:19;;;;;;;;;;;26.30;81.20;;;;;;5037825;28;20289;-72
2022/08/31 12:04:50;;;;;;;;;;;26.50;81.90;;;;;;5033671;28;20241;-71
2022/08/31 12:07:17;;;;;;;;;;;26.70;77.60;;;;;;5019885;28;19936;-71
2022/08/31 12:10:06;;;;;;;;;;;27.10;79.00;;;;;;5035419;28;20452;-71
2022/08/31 12:12:32;;;;;;;;;;;26.90;74.80;;;;;;5030653;28;19917;-72
2022/08/31 12:15:06;;;;;;;;;;;26.60;76.20;;;;;;5032450;28;19916;-71
2022/08/31 12:17:51;;;;;;;;;;;26.50;76.80;;;;;;5021914;28;19947;-71
2022/08/31 12:20:29;;;;;;;;;;;26.40;81.00;;;;;;5028790;28;20047;-70
2022/08/31 12:26:21;;;;;;;;;;;26.10;77.60;;;;;;5032083;28;20188;-71
2022/08/31 12:29:05;;;;;;;;;;;25.80;78.30;;;;;;4969673;28;20249;-71
2022/08/31 12:31:33;;;;;;;;;;;25.40;79.70;;;;;;4974517;28;19918;-71
2022/08/31 12:34:02;;;;;;;;;;;25.20;81.80;;;;;;4999124;28;20011;-71
2022/08/31 12:36:29;;;;;;;;;;;25.20;79.00;;;;;;5021064;28;19909;-71
2022/08/31 12:39:09;;;;;;;;;;;25.10;84.90;;;;;;5032374;28;19922;-71
2022/08/31 12:41:55;;;;;;;;;;;25.50;83.00;;;;;;5036593;28;19943;-71
2022/08/31 12:44:32;;;;;;;;;;;25.90;82.40;;;;;;5025292;28;20484;-70
2022/08/31 12:47:00;;;;;;;;;;;26.20;79.50;;;;;;5025907;28;20438;-71
2022/08/31 12:49:41;;;;;;;;;;;26.30;77.90;;;;;;5030689;28;19925;-71
2022/08/31 12:52:15;;;;;;;;;;;26.50;77.70;;;;;;5033684;28;19959;-71
2022/08/31 12:54:49;;;;;;;;;;;26.60;77.80;;;;;;5036413;28;20012;-71
2022/08/31 12:57:33;;;;;;;;;;;26.50;74.40;;;;;;5036706;28;20390;-71
2022/08/31 13:00:04;;;;;;;;;;;26.30;75.90;;;;;;5035805;28;20380;-71
2022/08/31 13:02:30;;;;;;;;;;;26.20;75.30;;;;;;5032885;28;20034;-71
2022/08/31 13:04:56;;;;;;;;;;;26.20;77.30;;;;;;5030305;28;19931;-71
2022/08/31 13:07:27;;;;;;;;;;;26.40;80.40;;;;;;5035690;28;20363;-71
2022/08/31 13:10:02;;;;;;;;;;;26.40;73.90;;;;;;5037326;28;20109;-71
2022/08/31 13:12:27;;;;;;;;;;;25.80;74.50;;;;;;5035784;28;20438;-71
2022/08/31 13:14:53;;;;;;;;;;;25.50;74.40;;;;;;5038266;28;19916;-71
2022/08/31 13:17:20;;;;;;;;;;;25.40;78.40;;;;;;5037300;28;19974;-72
2022/08/31 13:19:53;;;;;;;;;;;25.30;76.20;;;;;;5054800;28;19943;-71
2022/08/31 13:22:33;;;;;;;;;;;25.30;77.10;;;;;;5039478;28;19912;-71
2022/08/31 13:25:22;;;;;;;;;;;25.40;77.30;;;;;;5053515;28;19952;-72
2022/08/31 13:27:49;;;;;;;;;;;25.40;76.90;;;;;;5037656;28;20507;-71
2022/08/31 13:30:17;;;;;;;;;;;25.70;77.00;;;;;;5038990;28;19935;-71
2022/08/31 13:32:45;;;;;;;;;;;26.00;75.40;;;;;;5037131;28;19968;-71
2022/08/31 13:35:13;;;;;;;;;;;26.50;77.40;;;;;;5024483;28;20423;-71
2022/08/31 13:37:51;;;;;;;;;;;26.90;70.90;;;;;;5029242;28;19925;-71
2022/08/31 13:40:17;;;;;;;;;;;26.40;72.90;;;;;;5021871;28;20399;-72
2022/08/31 13:42:46;;;;;;;;;;;26.50;73.70;;;;;;5038217;28;20363;-71
2022/08/31 13:45:24;;;;;;;;;;;26.80;71.30;;;;;;5035449;28;19948;-72
2022/08/31 13:47:56;;;;;;;;;;;27.10;70.60;;;;;;5038982;28;19924;-72
2022/08/31 13:50:24;;;;;;;;;;;26.50;67.80;;;;;;5037435;28;19921;-71
2022/08/31 13:52:52;;;;;;;;;;;26.10;70.20;;;;;;5036817;28;19912;-71
2022/08/31 13:55:36;;;;;;;;;;;26.00;69.50;;;;;;5026068;28;20276;-72
2022/08/31 13:58:05;;;;;;;;;;;25.90;70.20;;;;;;5016639;28;20164;-72
2022/08/31 14:00:39;;;;;;;;;;;25.90;71.90;;;;;;5016018;28;19917;-71
2022/08/31 14:03:44;;;;;;;;;;;26.10;74.90;;;;;;5016141;28;20557;-72
2022/08/31 14:06:22;;;;;;;;;;;26.10;70.00;;;;;;4980634;28;19925;-71
2022/08/31 14:08:53;;;;;;;;;;;26.10;68.60;;;;;;5039959;28;20027;-71
2022/08/31 14:11:19;;;;;;;;;;;25.40;69.00;;;;;;5037545;28;19923;-72
2022/08/31 14:13:49;;;;;;;;;;;25.00;68.20;;;;;;5019386;28;20337;-72
2022/08/31 14:16:45;;;;;;;;;;;24.80;69.20;;;;;;5037653;28;20441;-72
2022/08/31 14:19:10;;;;;;;;;;;24.50;69.80;;;;;;5025913;28;20398;-71
2022/08/31 14:21:38;;;;;;;;;;;24.20;67.70;;;;;;5039545;28;20004;-72
2022/08/31 14:24:06;;;;;;;;;;;23.90;70.80;;;;;;5037945;28;19987;-71
2022/08/31 14:26:32;;;;;;;;;;;23.40;70.90;;;;;;5039807;28;19917;-72
2022/08/31 14:28:59;;;;;;;;;;;23.00;70.10;;;;;;5036312;28;19920;-72
2022/08/31 14:31:28;;;;;;;;;;;22.90;72.00;;;;;;5039278;28;19913;-72
2022/08/31 14:34:00;;;;;;;;;;;22.80;76.60;;;;;;5032522;28;20024;-71
2022/08/31 14:36:26;;;;;;;;;;;22.70;69.10;;;;;;5035455;28;19971;-71
2022/08/31 14:38:53;;;;;;;;;;;22.60;70.70;;;;;;5021529;28;20039;-70
2022/08/31 14:41:22;;;;;;;;;;;22.60;72.30;;;;;;5027195;28;19921;-71